Time;durP1;ratioP1;P1;durP2;ratioP2;P2;SDS_P1;SDS_P2;PMS_P1;PMS_P2;Temp;Humidity;BMP_temperature;BMP_pressure;BME280_temperature;BME280_humidity;BME280_pressure;Samples;Min_cycle;Max_cycle;Signal;HPM_P1;HPM_P2
2022/08/10 00:01:03;;;;;;;1.90;1.80;;;;;;;20.96;37.03;99693.06;5115321;27;39924;-73
2022/08/10 00:03:31;;;;;;;1.83;1.73;;;;;;;20.99;37.43;99691.94;5133901;27;42623;-74
2022/08/10 00:05:59;;;;;;;3.27;1.83;;;;;;;20.96;37.92;99693.06;5114984;27;42780;-73
2022/08/10 00:08:28;;;;;;;3.17;1.70;;;;;;;20.94;37.51;99692.34;5133735;27;42295;-73
2022/08/10 00:10:57;;;;;;;2.03;1.67;;;;;;;20.92;38.20;99685.41;5133464;27;39789;-74
2022/08/10 00:13:26;;;;;;;2.87;2.57;;;;;;;20.90;37.77;99682.84;5097807;27;43095;-73
2022/08/10 00:15:54;;;;;;;3.03;1.83;;;;;;;20.82;38.14;99680.03;5133328;27;42854;-73
2022/08/10 00:18:22;;;;;;;2.93;2.03;;;;;;;20.86;38.20;99686.84;5097567;27;41328;-74
2022/08/10 00:20:49;;;;;;;2.00;1.90;;;;;;;20.84;38.29;99682.59;5114792;27;40972;-74
2022/08/10 00:23:17;;;;;;;2.73;1.97;;;;;;;20.80;38.23;99680.16;5114862;27;42063;-74
2022/08/10 00:25:46;;;;;;;2.37;1.80;;;;;;;20.76;38.59;99686.00;5097749;27;41886;-73
2022/08/10 00:28:14;;;;;;;2.27;2.07;;;;;;;20.74;38.38;99687.97;5114813;27;41297;-73
2022/08/10 00:30:42;;;;;;;3.13;2.00;;;;;;;20.72;38.51;99687.25;5133325;27;41001;-74
2022/08/10 00:33:10;;;;;;;2.83;2.20;;;;;;;20.65;38.72;99672.63;5115105;27;43461;-73
2022/08/10 00:35:37;;;;;;;2.47;2.10;;;;;;;20.67;38.78;99684.13;5114931;27;42090;-72
2022/08/10 00:38:05;;;;;;;2.43;2.23;;;;;;;20.64;39.35;99681.72;5114552;27;43520;-73
2022/08/10 00:40:32;;;;;;;2.70;2.50;;;;;;;20.37;39.04;99637.47;5114990;27;41923;-74
2022/08/10 00:43:01;;;;;;;2.40;1.63;;;;;;;20.60;38.95;99674.91;5133434;27;41808;-74
2022/08/10 00:45:29;;;;;;;2.77;1.90;;;;;;;20.59;39.14;99678.59;5114587;27;44400;-73
2022/08/10 00:47:57;;;;;;;3.40;2.27;;;;;;;20.55;39.50;99677.16;5114730;27;42609;-72
2022/08/10 00:50:24;;;;;;;2.57;2.03;;;;;;;20.53;39.03;99679.97;5097188;27;41660;-73
2022/08/10 00:52:53;;;;;;;2.60;2.40;;;;;;;20.52;39.52;99669.38;5096713;27;41801;-72
2022/08/10 00:55:21;;;;;;;3.20;2.10;;;;;;;20.43;39.61;99663.81;5113700;27;43779;-73
2022/08/10 00:57:49;;;;;;;2.20;2.00;;;;;;;20.46;39.79;99667.22;5133232;27;42384;-72
2022/08/10 01:00:19;;;;;;;4.57;2.07;;;;;;;20.42;39.65;99670.19;5114795;27;38531;-72
2022/08/10 01:02:46;;;;;;;2.57;2.00;;;;;;;20.40;39.81;99664.09;5114310;27;40798;-73
2022/08/10 01:05:14;;;;;;;2.77;2.20;;;;;;;20.32;39.89;99654.97;5114609;27;42689;-73
2022/08/10 01:07:51;;;;;;;2.47;2.23;;;;;;;20.35;39.94;99662.78;5114360;27;42222;-73
2022/08/10 01:10:29;;;;;;;2.60;2.40;;;;;;;20.31;39.70;99664.91;5114265;27;38747;-73
2022/08/10 01:13:07;;;;;;;3.13;2.17;;;;;;;20.28;39.86;99664.31;5114274;27;42354;-72
2022/08/10 01:15:43;;;;;;;4.80;2.10;;;;;;;20.24;40.34;99669.13;5113354;27;42785;-73
2022/08/10 01:18:18;;;;;;;2.30;2.10;;;;;;;20.19;40.30;99657.94;5131012;27;42326;-72
2022/08/10 01:21:08;;;;;;;2.30;2.10;;;;;;;20.07;40.58;99642.88;5132122;27;40044;-74
2022/08/10 01:24:04;;;;;;;4.47;2.60;;;;;;;20.18;40.48;99664.28;5132900;27;41681;-73
2022/08/10 01:26:41;;;;;;;2.67;2.10;;;;;;;20.06;40.61;99643.88;5129727;27;43819;-72
2022/08/10 01:29:25;;;;;;;2.50;2.10;;;;;;;20.13;40.55;99661.19;5129223;27;42325;-73
2022/08/10 01:31:56;;;;;;;2.50;2.23;;;;;;;20.09;40.80;99660.59;5097061;27;40832;-73
2022/08/10 01:34:36;;;;;;;3.53;2.17;;;;;;;20.07;40.94;99659.03;5129861;27;41957;-73
2022/08/10 01:37:11;;;;;;;2.60;2.40;;;;;;;20.05;40.89;99663.69;5129411;27;42831;-73
2022/08/10 01:39:42;;;;;;;2.47;2.27;;;;;;;20.02;40.83;99663.97;5111739;27;42269;-73
2022/08/10 01:42:13;;;;;;;2.50;2.20;;;;;;;19.99;40.89;99659.72;5132868;27;39714;-72
2022/08/10 01:44:48;;;;;;;2.17;1.97;;;;;;;19.97;41.07;99655.44;5111987;27;41748;-72
2022/08/10 01:50:10;;;;;;;1.93;1.83;;;;;;;19.85;40.28;99653.84;5113785;27;42265;-73
2022/08/10 01:52:41;;;;;;;2.30;1.90;;;;;;;19.80;40.88;99661.44;5113819;27;38932;-73
2022/08/10 01:55:11;;;;;;;2.30;2.00;;;;;;;19.73;40.69;99656.63;5130487;27;42695;-74
2022/08/10 01:57:42;;;;;;;2.20;2.00;;;;;;;19.68;40.75;99666.91;5113528;27;44069;-73
2022/08/10 02:00:13;;;;;;;2.20;2.00;;;;;;;19.61;40.56;99665.75;5112930;27;42161;-72
2022/08/10 02:02:43;;;;;;;2.40;2.20;;;;;;;19.55;40.64;99671.66;5112027;27;40000;-73
2022/08/10 02:05:14;;;;;;;2.00;1.60;;;;;;;19.47;40.77;99674.13;5135983;27;41459;-72
2022/08/10 02:07:43;;;;;;;2.40;1.87;;;;;;;19.41;40.54;99674.66;5114344;27;43715;-72
2022/08/10 02:10:14;;;;;;;2.00;1.77;;;;;;;19.34;40.84;99668.97;5135688;27;42332;-72
2022/08/10 02:12:43;;;;;;;2.37;1.90;;;;;;;19.27;40.84;99672.31;5132825;27;40011;-72
2022/08/10 02:15:16;;;;;;;2.33;1.93;;;;;;;19.21;41.14;99680.88;5135700;27;42616;-71
2022/08/10 02:17:49;;;;;;;2.87;2.20;;;;;;;19.14;41.61;99671.66;5133392;27;42486;-72
2022/08/10 02:20:20;;;;;;;2.00;1.90;;;;;;;19.07;41.27;99670.44;5133911;27;42275;-72
2022/08/10 02:22:51;;;;;;;2.17;1.97;;;;;;;19.03;41.28;99675.25;5117454;27;40854;-72
2022/08/10 02:25:21;;;;;;;2.73;1.83;;;;;;;18.85;41.35;99656.16;5099787;27;41331;-71
2022/08/10 02:27:51;;;;;;;3.20;2.07;;;;;;;18.93;41.42;99677.84;5117077;27;42861;-73
2022/08/10 02:30:21;;;;;;;1.90;1.80;;;;;;;18.93;41.48;99676.97;5099730;27;42393;-73
2022/08/10 02:32:51;;;;;;;1.90;1.77;;;;;;;18.91;41.82;99682.50;5117427;27;39656;-75
2022/08/10 02:35:20;;;;;;;1.97;1.83;;;;;;;18.89;41.52;99679.09;5116998;27;41483;-73
2022/08/10 02:37:50;;;;;;;1.90;1.80;;;;;;;18.86;41.61;99679.34;5099632;27;42839;-72
2022/08/10 02:40:19;;;;;;;2.83;1.70;;;;;;;18.77;41.79;99668.53;5135420;27;41930;-73
2022/08/10 02:42:53;;;;;;;2.83;1.97;;;;;;;18.82;42.02;99677.88;5117017;27;38911;-72
2022/08/10 02:45:27;;;;;;;1.97;1.77;;;;;;;18.80;42.25;99679.84;5116526;27;41818;-73
2022/08/10 02:47:58;;;;;;;2.00;1.90;;;;;;;18.77;41.97;99680.13;5099741;27;41585;-73
2022/08/10 02:50:28;;;;;;;2.40;1.83;;;;;;;18.74;42.36;99675.00;5115717;27;42336;-73
2022/08/10 02:53:01;;;;;;;2.77;2.10;;;;;;;18.73;42.09;99689.38;5116479;27;39005;-73
2022/08/10 02:55:35;;;;;;;2.57;2.37;;;;;;;18.68;42.26;99678.16;5116398;27;42039;-73
2022/08/10 02:58:08;;;;;;;1.90;1.77;;;;;;;18.65;42.13;99675.78;5131466;27;42695;-72
2022/08/10 03:00:43;;;;;;;2.33;2.10;;;;;;;18.59;42.14;99677.09;5133620;27;42414;-74
2022/08/10 03:03:18;;;;;;;2.97;1.80;;;;;;;18.58;42.77;99686.13;5132024;27;39920;-73
2022/08/10 03:05:49;;;;;;;2.17;1.80;;;;;;;18.55;42.90;99675.63;5134337;27;41523;-73
2022/08/10 03:08:21;;;;;;;2.57;2.10;;;;;;;18.53;42.75;99682.97;5099436;27;42951;-73
2022/08/10 03:10:51;;;;;;;4.53;2.23;;;;;;;18.50;42.63;99677.00;5116177;27;42315;-73
2022/08/10 03:13:20;;;;;;;4.50;2.20;;;;;;;18.44;43.05;99672.09;5116299;27;41019;-73
2022/08/10 03:15:51;;;;;;;3.00;2.10;;;;;;;18.48;42.98;99684.31;5115198;27;40647;-73
2022/08/10 03:18:23;;;;;;;2.40;2.20;;;;;;;18.45;43.17;99681.88;5098887;27;41466;-73
2022/08/10 03:20:53;;;;;;;2.33;2.00;;;;;;;18.41;43.16;99686.66;5116329;27;41330;-74
2022/08/10 03:23:23;;;;;;;2.70;2.07;;;;;;;18.39;43.56;99682.38;5098803;27;38885;-72
2022/08/10 03:25:55;;;;;;;2.10;1.97;;;;;;;18.38;43.77;99684.22;5115317;27;41762;-72
2022/08/10 03:28:24;;;;;;;3.43;2.13;;;;;;;18.35;43.83;99680.91;5099021;27;43096;-71
2022/08/10 03:30:54;;;;;;;2.30;2.10;;;;;;;18.33;43.87;99681.03;5098767;27;41456;-72
2022/08/10 03:33:26;;;;;;;2.53;2.33;;;;;;;18.33;44.35;99685.53;5099074;27;39673;-72
2022/08/10 03:35:54;;;;;;;2.83;2.17;;;;;;;18.20;44.49;99659.72;5134206;27;42507;-73
2022/08/10 03:38:22;;;;;;;2.80;2.20;;;;;;;18.31;44.42;99673.13;5134449;27;43881;-73
2022/08/10 03:40:52;;;;;;;2.30;2.00;;;;;;;18.27;43.97;99677.03;5134183;27;42409;-73
2022/08/10 03:43:22;;;;;;;2.07;1.87;;;;;;;18.29;44.40;99680.47;5134730;27;40696;-73
2022/08/10 03:45:55;;;;;;;3.07;2.30;;;;;;;18.14;44.18;99660.25;5098598;27;41989;-73
2022/08/10 03:48:26;;;;;;;2.63;2.10;;;;;;;18.17;44.15;99665.38;5131190;27;42452;-73
2022/08/10 03:50:55;;;;;;;3.07;2.40;;;;;;;18.24;44.04;99682.66;5098365;27;41442;-73
2022/08/10 03:53:24;;;;;;;2.83;2.10;;;;;;;18.23;44.48;99678.25;5115667;27;38930;-73
2022/08/10 03:55:52;;;;;;;1.63;1.53;;;;;;;18.21;44.34;99682.88;5134087;27;41750;-72
2022/08/10 03:58:20;;;;;;;2.27;2.07;;;;;;;18.18;44.24;99685.81;5115001;27;41793;-72
2022/08/10 04:00:50;;;;;;;1.90;1.80;;;;;;;18.16;44.29;99679.75;5133572;27;42162;-73
2022/08/10 04:03:19;;;;;;;2.50;2.27;;;;;;;18.14;44.43;99670.97;5115622;27;39610;-73
2022/08/10 04:05:47;;;;;;;1.90;1.80;;;;;;;18.11;44.04;99676.56;5133875;27;42582;-72
2022/08/10 04:08:15;;;;;;;2.10;1.90;;;;;;;18.08;44.02;99676.81;5133941;27;43466;-72
2022/08/10 04:10:43;;;;;;;2.20;2.00;;;;;;;18.08;44.63;99687.53;5098374;27;42069;-73
2022/08/10 04:13:10;;;;;;;2.90;1.90;;;;;;;18.06;44.71;99685.94;5115674;27;40034;-73
2022/08/10 04:15:38;;;;;;;2.03;1.83;;;;;;;18.07;44.31;99690.31;5133751;27;42710;-73
2022/08/10 04:18:06;;;;;;;2.00;1.80;;;;;;;18.05;44.43;99687.78;5114920;27;42679;-74
2022/08/10 04:20:40;;;;;;;2.33;2.10;;;;;;;18.06;44.58;99689.47;5115152;27;42269;-73
2022/08/10 04:23:12;;;;;;;2.73;2.30;;;;;;;18.07;44.78;99690.31;5112243;27;40885;-73
2022/08/10 04:25:40;;;;;;;2.50;2.30;;;;;;;18.00;44.69;99684.63;5114535;27;41999;-74
2022/08/10 04:28:09;;;;;;;3.10;2.07;;;;;;;17.95;44.71;99670.72;5114999;27;42817;-73
2022/08/10 04:30:37;;;;;;;2.20;2.00;;;;;;;18.08;44.66;99695.56;5133548;27;42006;-73
2022/08/10 04:33:08;;;;;;;2.27;2.03;;;;;;;18.10;44.42;99693.63;5098124;27;39957;-73
2022/08/10 04:35:39;;;;;;;2.40;2.20;;;;;;;18.11;44.62;99689.97;5133618;27;42163;-74
2022/08/10 04:38:08;;;;;;;1.90;1.80;;;;;;;18.15;44.76;99694.13;5111932;27;42520;-73
2022/08/10 04:40:37;;;;;;;3.40;2.30;;;;;;;18.17;44.69;99689.50;5114940;27;42642;-73
2022/08/10 04:43:06;;;;;;;2.00;1.80;;;;;;;18.11;44.97;99681.06;5133578;27;40716;-73
2022/08/10 04:45:34;;;;;;;3.53;2.30;;;;;;;18.25;44.87;99695.09;5097555;27;43051;-73
2022/08/10 04:48:02;;;;;;;2.40;2.20;;;;;;;18.38;44.62;99700.31;5133315;27;42492;-73
2022/08/10 04:50:30;;;;;;;2.93;2.00;;;;;;;18.47;45.15;99698.69;5114516;27;42294;-73
2022/08/10 04:52:59;;;;;;;3.80;2.40;;;;;;;18.56;45.10;99697.94;5133320;27;41041;-72
2022/08/10 04:55:27;;;;;;;2.60;2.20;;;;;;;18.64;44.52;99703.56;5114728;27;42520;-73
2022/08/10 04:57:54;;;;;;;3.93;2.30;;;;;;;18.75;44.24;99705.38;5114602;27;41937;-73
2022/08/10 05:00:22;;;;;;;2.20;2.00;;;;;;;18.82;44.25;99710.09;5097392;27;42255;-73
2022/08/10 05:02:50;;;;;;;2.13;1.90;;;;;;;18.91;43.66;99713.88;5114582;27;38981;-74
2022/08/10 05:05:19;;;;;;;2.20;2.00;;;;;;;18.95;43.79;99705.41;5132008;27;41620;-74
2022/08/10 05:07:46;;;;;;;2.43;2.23;;;;;;;19.10;43.83;99713.16;5114476;27;41944;-73
2022/08/10 05:10:16;;;;;;;3.83;2.10;;;;;;;19.17;44.45;99711.66;5114412;27;42214;-73
2022/08/10 05:12:43;;;;;;;3.67;2.67;;;;;;;19.28;44.44;99706.25;5114326;27;38846;-73
2022/08/10 05:15:12;;;;;;;4.23;2.50;;;;;;;19.38;44.33;99704.47;5113944;27;42099;-74
2022/08/10 05:17:42;;;;;;;2.57;2.13;;;;;;;19.48;43.96;99701.84;5114181;27;42808;-72
2022/08/10 05:20:12;;;;;;;2.80;2.10;;;;;;;19.57;43.68;99712.69;5097038;27;41186;-73
2022/08/10 05:22:42;;;;;;;3.37;2.27;;;;;;;19.66;44.00;99713.72;5132832;27;40022;-73
2022/08/10 05:25:11;;;;;;;3.47;2.00;;;;;;;19.75;43.60;99712.09;5132711;27;42461;-74
2022/08/10 05:27:41;;;;;;;2.13;2.03;;;;;;;19.86;43.26;99717.38;5132753;27;42741;-74
2022/08/10 05:30:12;;;;;;;3.03;1.97;;;;;;;19.95;43.31;99719.25;5113960;27;42339;-73
2022/08/10 05:32:39;;;;;;;2.00;1.80;;;;;;;20.07;43.11;99715.50;5114423;27;39328;-73
2022/08/10 05:35:08;;;;;;;2.40;2.20;;;;;;;20.14;43.34;99710.44;5114054;27;40553;-73
2022/08/10 05:37:36;;;;;;;2.70;1.93;;;;;;;20.22;42.88;99724.06;5113434;27;42020;-74
2022/08/10 05:40:06;;;;;;;2.73;2.53;;;;;;;20.36;43.03;99729.09;5113455;27;41240;-74
2022/08/10 05:42:34;;;;;;;3.70;2.83;;;;;;;20.49;42.85;99731.53;5114123;27;40742;-73
2022/08/10 05:45:04;;;;;;;2.47;2.27;;;;;;;20.58;42.73;99720.78;5132323;27;41808;-73
2022/08/10 05:47:32;;;;;;;2.83;2.23;;;;;;;20.71;42.35;99729.47;5112061;27;42544;-76
2022/08/10 05:50:00;;;;;;;2.37;2.17;;;;;;;20.76;42.16;99713.75;5111105;27;43174;-77
2022/08/10 05:52:27;;;;;;;2.30;2.10;;;;;;;21.02;41.82;99730.19;5113960;27;39944;-77
2022/08/10 05:54:55;;;;;;;2.37;2.17;;;;;;;21.24;41.44;99733.66;5096505;27;40928;-76
2022/08/10 05:57:23;;;;;;;3.30;2.40;;;;;;;21.40;41.23;99740.16;5094957;27;41749;-78
2022/08/10 05:59:59;;;;;;;2.80;2.53;;;;;;;21.54;41.04;99730.78;5113653;27;41625;-77
2022/08/10 06:02:32;;;;;;;3.60;2.60;;;;;;;21.65;41.02;99738.72;5097751;27;38632;-75
2022/08/10 06:05:05;;;;;;;2.57;2.37;;;;;;;21.79;41.13;99745.50;5111822;27;41825;-76
2022/08/10 06:07:37;;;;;;;2.17;1.97;;;;;;;21.96;40.91;99739.34;5129351;27;42831;-79
2022/08/10 06:10:07;;;;;;;4.07;2.20;;;;;;;22.08;40.69;99740.06;5130320;27;42474;-79
2022/08/10 06:12:37;;;;;;;2.60;2.30;;;;;;;22.21;40.58;99743.28;5129574;27;40912;-78
2022/08/10 06:15:05;;;;;;;3.70;2.30;;;;;;;22.26;40.41;99729.31;5096370;27;40753;-77
2022/08/10 06:17:36;;;;;;;3.30;2.40;;;;;;;22.46;40.28;99739.88;5113845;27;42715;-75
2022/08/10 06:20:05;;;;;;;2.70;2.17;;;;;;;22.67;40.30;99739.63;5111768;27;42922;-76
2022/08/10 06:22:32;;;;;;;5.50;2.43;;;;;;;22.89;39.98;99741.06;5132392;27;40666;-77
2022/08/10 06:25:01;;;;;;;4.03;2.40;;;;;;;23.03;39.51;99742.41;5113685;27;41778;-77
2022/08/10 06:27:29;;;;;;;5.17;2.40;;;;;;;23.16;38.98;99749.13;5113511;27;42618;-80
2022/08/10 06:29:59;;;;;;;2.53;2.30;;;;;;;23.26;38.47;99739.06;5112610;27;42224;-84
2022/08/10 06:32:29;;;;;;;5.00;2.60;;;;;;;23.55;38.04;99743.41;5097391;27;39724;-78
2022/08/10 06:35:00;;;;;;;3.00;2.20;;;;;;;23.68;38.13;99735.75;5113720;27;42043;-77
2022/08/10 06:37:30;;;;;;;2.30;2.10;;;;;;;24.20;37.55;99750.13;5114472;27;42928;-76
2022/08/10 06:39:58;;;;;;;2.50;2.00;;;;;;;24.85;36.24;99755.00;5113097;27;42388;-75
2022/08/10 06:42:31;;;;;;;3.67;2.37;;;;;;;25.66;34.25;99760.56;5131951;27;39872;-75
2022/08/10 06:45:03;;;;;;;2.73;2.50;;;;;;;26.50;32.93;99770.94;5129576;27;41714;-76
2022/08/10 06:47:37;;;;;;;5.23;2.17;;;;;;;26.72;33.17;99758.44;5113537;27;42047;-75
2022/08/10 06:50:13;;;;;;;3.67;2.10;;;;;;;26.70;32.86;99777.66;5131171;27;42991;-78
2022/08/10 06:52:43;;;;;;;2.23;2.10;;;;;;;26.48;33.17;99778.41;5116799;27;39997;-75
2022/08/10 06:55:14;;;;;;;2.77;1.87;;;;;;;26.38;33.45;99777.75;5098971;27;41691;-82
2022/08/10 06:57:46;;;;;;;2.50;2.30;;;;;;;26.43;33.23;99773.50;5100329;27;42989;-77
2022/08/10 07:00:15;;;;;;;3.60;2.33;;;;;;;26.45;33.14;99774.19;5114235;27;42760;-75
2022/08/10 07:02:47;;;;;;;2.17;2.00;;;;;;;26.27;33.50;99757.22;5116760;27;40031;-77
2022/08/10 07:05:21;;;;;;;2.60;2.10;;;;;;;26.31;34.17;99752.34;5116372;27;40338;-82
2022/08/10 07:07:52;;;;;;;2.13;1.80;;;;;;;26.41;33.68;99766.56;5099708;27;41623;-78
2022/08/10 07:10:24;;;;;;;4.53;2.30;;;;;;;26.42;33.94;99769.09;5132923;27;42256;-78
2022/08/10 07:12:55;;;;;;;2.47;2.20;;;;;;;26.48;33.75;99767.53;5116756;27;39218;-76
2022/08/10 07:15:25;;;;;;;3.07;1.80;;;;;;;26.62;34.11;99768.66;5098710;27;43550;-74
2022/08/10 07:17:54;;;;;;;2.00;1.80;;;;;;;26.80;33.23;99781.00;5134103;27;42709;-76
2022/08/10 07:20:25;;;;;;;1.87;1.73;;;;;;;26.88;32.88;99774.66;5098604;27;40592;-75
2022/08/10 07:22:54;;;;;;;2.20;1.83;;;;;;;26.91;32.71;99768.88;5135014;27;39963;-76
2022/08/10 07:25:24;;;;;;;2.00;1.80;;;;;;;26.99;32.74;99776.16;5115658;27;41940;-75
2022/08/10 07:27:53;;;;;;;3.47;1.43;;;;;;;27.14;32.28;99768.94;5116133;27;43800;-79
2022/08/10 07:30:21;;;;;;;1.97;1.87;;;;;;;27.41;32.13;99773.84;5115941;27;41112;-76
2022/08/10 07:32:52;;;;;;;1.90;1.80;;;;;;;27.71;32.08;99779.41;5134932;27;40120;-79
2022/08/10 07:35:27;;;;;;;2.37;1.90;;;;;;;27.97;31.35;99766.25;5099084;27;41706;-77
2022/08/10 07:40:41;;;;;;;2.10;1.67;;;;;;;28.55;30.03;99789.16;5117602;27;42522;-79
2022/08/10 07:43:11;;;;;;;1.90;1.70;;;;;;;28.44;30.03;99774.09;5135266;27;41048;-82
2022/08/10 07:45:40;;;;;;;2.10;1.90;;;;;;;28.56;30.00;99786.22;5098191;27;40802;-79
2022/08/10 07:48:13;;;;;;;3.63;1.70;;;;;;;28.62;29.68;99786.50;5116088;27;43042;-77
2022/08/10 07:50:45;;;;;;;1.80;1.60;;;;;;;28.86;29.63;99795.25;5098389;27;41357;-79
2022/08/10 07:53:21;;;;;;;2.30;1.50;;;;;;;29.12;29.75;99794.72;5116021;27;39925;-78
2022/08/10 07:55:49;;;;;;;1.60;1.43;;;;;;;29.61;29.36;99791.28;5097916;27;41893;-77
2022/08/10 07:58:20;;;;;;;1.73;1.60;;;;;;;30.57;27.53;99814.34;5098811;27;44615;-77
2022/08/10 08:00:50;;;;;;;1.70;1.60;;;;;;;31.53;25.73;99812.44;5133382;27;42826;-78
2022/08/10 08:03:23;;;;;;;1.57;1.47;;;;;;;32.09;25.69;99823.91;5134407;27;40894;-76
2022/08/10 08:05:53;;;;;;;1.70;1.57;;;;;;;32.19;24.85;99829.81;5132990;27;42766;-78
2022/08/10 08:08:46;;;;;;;1.60;1.50;;;;;;;31.95;25.00;99827.69;5115971;27;43757;-81
2022/08/10 08:12:02;;;;;;;3.90;2.13;;;;;;;31.23;25.74;99768.16;5105593;27;42195;-80
2022/08/10 08:14:32;;;;;;;2.13;2.03;;;;;;;31.19;25.84;99758.66;5012273;28;39700;-77
2022/08/10 08:17:00;;;;;;;1.50;1.40;;;;;;;31.63;26.73;99802.78;5070143;28;41008;-80
2022/08/10 08:19:29;;;;;;;2.17;1.67;;;;;;;32.04;25.50;99805.34;5096700;27;42702;-81
2022/08/10 08:22:01;;;;;;;1.73;1.63;;;;;;;32.35;24.55;99788.25;5098539;27;42168;-75
2022/08/10 08:24:30;;;;;;;3.50;1.67;;;;;;;32.76;24.03;99831.84;5132855;27;39932;-81
2022/08/10 08:27:00;;;;;;;2.80;1.67;;;;;;;32.95;23.97;99830.09;5134090;27;42685;-78
2022/08/10 08:29:28;;;;;;;1.60;1.50;;;;;;;33.02;24.37;99800.72;5098212;27;42341;-84
2022/08/10 08:31:56;;;;;;;2.20;1.70;;;;;;;33.08;24.27;99808.09;5115284;27;43128;-80
2022/08/10 08:34:25;;;;;;;2.63;1.60;;;;;;;33.21;23.84;99823.66;5097550;27;38699;-77
2022/08/10 08:36:54;;;;;;;1.53;1.43;;;;;;;33.83;23.34;99822.06;5097507;27;41989;-78
2022/08/10 08:39:35;;;;;;;2.03;1.60;;;;;;;34.53;22.38;99829.06;5114592;27;42575;-76
2022/08/10 08:42:38;;;;;;;3.47;1.90;;;;;;;35.05;20.70;99793.75;5114496;27;41286;-73
2022/08/10 08:45:39;;;;;;;1.90;1.50;;;;;;;36.12;20.28;99849.03;5112699;27;40085;-76
2022/08/10 08:48:36;;;;;;;2.30;1.80;;;;;;;37.52;19.59;99832.31;5114580;27;40568;-76
2022/08/10 08:51:18;;;;;;;1.90;1.48;;;;;;;38.88;18.09;99830.16;5110808;27;43782;-79
2022/08/10 08:53:58;;;;;;;1.63;1.52;;;;;;;39.59;17.19;99858.75;5097380;27;41231;-78
2022/08/10 08:56:34;;;;;;;2.75;1.50;;;;;;;39.99;16.88;99847.25;5114009;27;38949;-78
2022/08/10 08:59:14;;;;;;;1.48;1.38;;;;;;;40.32;16.31;99840.59;5097519;27;40894;-77
2022/08/10 09:01:54;;;;;;;1.77;1.40;;;;;;;40.40;15.90;99840.13;5097429;27;41773;-77
2022/08/10 09:04:56;;;;;;;1.60;1.50;;;;;;;40.72;15.55;99840.91;5096717;27;42192;-77
2022/08/10 09:07:56;;;;;;;2.45;1.48;;;;;;;41.11;16.02;99838.59;5095096;27;40088;-80
2022/08/10 09:10:36;;;;;;;1.77;1.67;;;;;;;41.41;15.04;99849.00;5107800;27;41684;-79
2022/08/10 09:13:10;;;;;;;2.13;1.70;;;;;;;40.73;15.72;99845.34;5096232;27;41853;-78
2022/08/10 09:15:47;;;;;;;2.05;1.70;;;;;;;38.87;16.65;99817.38;5110961;27;42162;-81
2022/08/10 09:18:21;;;;;;;1.65;1.55;;;;;;;37.81;17.60;99831.22;5097401;27;39290;-80
2022/08/10 09:21:01;;;;;;;1.73;1.63;;;;;;;37.55;17.30;99826.28;5113905;27;40430;-77
2022/08/10 09:23:40;;;;;;;1.70;1.60;;;;;;;37.09;16.45;99789.47;5097289;27;41702;-77
2022/08/10 09:26:14;;;;;;;1.97;1.80;;;;;;;36.89;17.26;99811.13;5096337;27;41099;-80
2022/08/10 09:28:44;;;;;;;3.20;1.67;;;;;;;38.05;16.27;99821.69;5111741;27;41193;-79
2022/08/10 09:31:13;;;;;;;1.60;1.50;;;;;;;39.59;15.40;99836.56;5113663;27;42095;-77
2022/08/10 09:33:51;;;;;;;1.75;1.63;;;;;;;40.35;14.91;99842.84;5114033;27;41805;-78
2022/08/10 09:36:29;;;;;;;2.00;1.90;;;;;;;40.65;14.30;99817.22;5110866;27;43035;-79
2022/08/10 09:39:08;;;;;;;1.63;1.52;;;;;;;40.06;15.32;99836.78;5096728;27;39215;-76
2022/08/10 09:41:44;;;;;;;3.25;1.90;;;;;;;39.50;15.67;99833.44;5114110;27;41132;-81
2022/08/10 09:44:26;;;;;;;1.60;1.50;;;;;;;39.75;15.52;99825.38;5111320;27;42784;-76
2022/08/10 09:47:30;;;;;;;2.17;1.85;;;;;;;40.07;14.56;99827.34;5109903;28;43475;-76
2022/08/10 09:50:12;;;;;;;1.60;1.50;;;;;;;39.53;13.96;99848.72;5082169;27;39280;-76
2022/08/10 09:52:55;;;;;;;2.25;1.75;;;;;;;38.64;14.88;99835.94;5096888;27;41915;-78
2022/08/10 09:55:28;;;;;;;2.45;1.75;;;;;;;38.68;14.85;99831.56;5096540;27;41797;-77
2022/08/10 09:58:12;;;;;;;2.45;1.60;;;;;;;38.77;15.06;99795.94;5113794;27;42592;-86
2022/08/10 10:00:47;;;;;;;2.37;1.90;;;;;;;37.92;15.01;99837.78;5097317;27;40772;-82
2022/08/10 10:03:26;;;;;;;3.07;1.70;;;;;;;36.98;15.70;99828.97;5114275;27;41545;-84
2022/08/10 10:06:03;;;;;;;2.40;1.47;;;;;;;37.27;16.10;99816.06;5114369;27;41674;-79
2022/08/10 10:08:41;;;;;;;2.00;1.77;;;;;;;36.78;16.12;99803.72;5111761;27;42745;-87
2022/08/10 10:11:16;;;;;;;2.10;1.90;;;;;;;36.84;16.07;99797.22;5096998;27;38673;-82
2022/08/10 10:13:56;;;;;;;2.83;2.03;;;;;;;36.78;16.50;99792.66;5114614;27;41191;-81
2022/08/10 10:16:39;;;;;;;2.37;2.17;;;;;;;36.31;17.21;99803.75;5096667;27;43331;-83
2022/08/10 10:19:22;;;;;;;1.87;1.67;;;;;;;36.08;17.61;99792.69;5113720;27;42559;-81
2022/08/10 10:22:03;;;;;;;2.73;1.90;;;;;;;36.03;17.74;99787.03;5076516;28;40142;-80
2022/08/10 10:24:41;;;;;;;2.00;1.80;;;;;;;35.53;17.62;99790.13;5080593;27;40850;-77
2022/08/10 10:27:21;;;;;;;2.37;1.80;;;;;;;35.63;17.76;99787.63;5115029;27;43822;-77
2022/08/10 10:29:55;;;;;;;2.17;1.70;;;;;;;36.08;17.37;99787.16;5099234;27;41207;-77
2022/08/10 10:32:30;;;;;;;2.27;2.00;;;;;;;36.59;17.06;99779.00;5133708;27;39552;-77
2022/08/10 10:35:03;;;;;;;1.67;1.57;;;;;;;36.11;16.71;99786.66;5131957;27;41624;-81
2022/08/10 10:37:33;;;;;;;2.10;1.90;;;;;;;35.40;17.12;99763.63;5134336;27;43415;-80
2022/08/10 10:40:02;;;;;;;1.63;1.53;;;;;;;36.80;16.39;99760.13;5116131;27;41375;-77
2022/08/10 10:42:38;;;;;;;2.50;2.00;;;;;;;37.85;15.39;99751.34;5134840;27;40565;-78
2022/08/10 10:45:16;;;;;;;1.90;1.80;;;;;;;38.23;15.45;99781.00;5113107;27;41929;-76
2022/08/10 10:47:59;;;;;;;2.50;2.03;;;;;;;38.10;15.31;99785.81;5115513;27;42802;-76
2022/08/10 10:50:34;;;;;;;1.50;1.40;;;;;;;38.10;15.40;99780.28;5097778;27;41520;-80
2022/08/10 10:53:09;;;;;;;1.63;1.50;;;;;;;37.37;15.92;99749.94;5116166;27;42043;-82
2022/08/10 10:55:45;;;;;;;1.90;1.70;;;;;;;37.97;15.93;99761.22;5086814;28;42299;-77
2022/08/10 10:58:18;;;;;;;1.90;1.80;;;;;;;38.61;15.73;99742.28;5105339;27;43067;-85
2022/08/10 11:00:54;;;;;;;1.88;1.70;;;;;;;39.63;15.06;99757.31;5112955;27;43080;-78
2022/08/10 11:03:40;;;;;;;2.20;1.95;;;;;;;40.50;14.25;99770.75;5116341;27;40951;-79
2022/08/10 11:06:18;;;;;;;2.15;1.70;;;;;;;40.76;14.02;99747.59;5098007;27;41857;-78
2022/08/10 11:08:50;;;;;;;1.83;1.73;;;;;;;40.86;13.49;99739.28;5099033;27;41743;-78
2022/08/10 11:11:25;;;;;;;1.83;1.52;;;;;;;40.78;13.82;99734.25;5098205;27;41265;-78
2022/08/10 11:14:04;;;;;;;1.88;1.77;;;;;;;41.10;14.05;99731.28;5131116;27;40853;-78
2022/08/10 11:16:42;;;;;;;2.42;1.95;;;;;;;41.83;12.96;99750.59;5114141;27;41009;-79
2022/08/10 11:19:19;;;;;;;2.35;2.15;;;;;;;42.27;12.66;99762.00;5114970;27;43527;-76
2022/08/10 11:21:59;;;;;;;1.92;1.73;;;;;;;42.85;12.25;99767.97;5115058;27;44026;-79
2022/08/10 11:24:38;;;;;;;1.38;1.27;;;;;;;43.80;12.13;99748.13;5113362;27;41486;-84
2022/08/10 11:27:18;;;;;;;1.40;1.30;;;;;;;44.88;11.52;99732.78;5099803;27;41742;-84
2022/08/10 11:29:56;;;;;;;3.15;1.92;;;;;;;45.27;10.82;99746.47;5098079;27;41939;-75
2022/08/10 11:32:31;;;;;;;2.08;1.75;;;;;;;44.73;11.75;99754.16;5114749;27;42308;-78
2022/08/10 11:35:09;;;;;;;1.88;1.70;;;;;;;44.51;11.67;99758.66;5111047;27;39874;-78
2022/08/10 11:37:41;;;;;;;2.35;1.60;;;;;;;44.22;12.06;99747.47;5098652;27;41383;-76
2022/08/10 11:40:13;;;;;;;1.83;1.63;;;;;;;44.08;11.83;99754.88;5129992;27;42691;-76
2022/08/10 11:42:44;;;;;;;1.98;1.50;;;;;;;43.38;11.87;99744.00;5114579;27;41825;-74
2022/08/10 11:45:17;;;;;;;2.35;1.85;;;;;;;42.75;11.93;99749.31;5111575;27;41840;-76
2022/08/10 11:47:50;;;;;;;2.28;1.67;;;;;;;42.48;12.20;99746.91;5132794;27;41698;-77
2022/08/10 11:50:25;;;;;;;1.70;1.50;;;;;;;42.50;12.46;99729.91;5130392;27;43707;-78
2022/08/10 11:53:04;;;;;;;1.50;1.40;;;;;;;42.68;12.09;99729.28;5097412;27;41148;-77
2022/08/10 11:55:34;;;;;;;1.83;1.73;;;;;;;43.00;12.06;99735.28;5129915;27;40448;-77
2022/08/10 11:59:55;;;;;;;2.42;1.70;;;;;;;43.05;11.75;99725.19;5114915;27;42416;-77
2022/08/10 12:00:56;;;;;;;1.70;1.60;;;;;;;44.40;11.10;99725.22;5097369;27;44439;-76
2022/08/10 12:03:24;;;;;;;2.25;1.58;;;;;;;45.64;10.41;99707.25;5133164;27;42492;-75
2022/08/10 12:05:54;;;;;;;1.63;1.52;;;;;;;46.74;9.99;99746.72;5114900;27;40970;-80